Nearby METAR Reports

 

KPAE - Everett, Washington, USA
Distance from station: NW 17mi, 28km
Updated: Tue, 16-Jul-2019 12:53pm PDT
Partly cloudy
Partly cloudy
 Wind from varies
Wind: varies 5 mph , 7 km/h
Temperature: 72°F , 22°C
Dew Point: 55°F , 13°C
Humidity: 57%
Barometer: 30.03 inHg , 1016.9 hPa
Clouds: Partly cloudy
Visibility: 10 miles , 16 km
Cloud details: Partly cloudy 4300 ft
2019/07/16 19:53 KPAE 161953Z VRB04KT 10SM SCT043 22/13 A3003 RMK AO2 SLP166 T02220133
KBFI - Seattle/Boeing, Washington, USA
Distance from station: SW 18mi, 29km
Updated: Tue, 16-Jul-2019 1:00pm PDT
Mostly cloudy
Mostly cloudy
 Wind from calm
Wind: Calm
Temperature: 73°F , 23°C
Dew Point: 55°F , 13°C
Humidity: 53%
Barometer: 30.01 inHg , 1016.3 hPa
Clouds: Mostly cloudy
Visibility: 10 miles , 16 km
Cloud details: Partly cloudy 1200 ft
Mostly cloudy 6000 ft
2019/07/16 20:00 KBFI 162000Z 00000KT 10SM SCT012 BKN060 23/13 A3001 RMK AO2 T02330133
 
KRNT - Renton, Washington, USA
Distance from station: SSW 18mi, 29km
Updated: Tue, 16-Jul-2019 12:53pm PDT
Overcast
Overcast
 Wind from WSW
Wind: WSW 6 mph , 9 km/h
Temperature: 73°F , 23°C
Dew Point: 57°F , 14°C
Humidity: 57%
Barometer: 30.01 inHg , 1016.3 hPa
Clouds: Overcast
Visibility: 10 miles , 16 km
Cloud details: Few Clouds 3000 ft
Overcast 7500 ft
2019/07/16 19:53 KRNT 161953Z 25005KT 10SM FEW030 OVC075 23/14 A3001 RMK AO2 SLP166 T02280144
KSEA - Seattle/Metro, Washington, USA
Distance from station: SW 24mi, 38km
Updated: Tue, 16-Jul-2019 12:53pm PDT
Mostly cloudy
Mostly cloudy
 Wind from varies
Wind: varies 6 mph , 9 km/h
Temperature: 73°F , 23°C
Dew Point: 57°F , 14°C
Humidity: 57%
Barometer: 30.03 inHg , 1016.9 hPa
Clouds: Mostly cloudy
Visibility: 10 miles , 16 km
Cloud details: Partly cloudy 1500 ft
Mostly cloudy 7000 ft
2019/07/16 19:53 KSEA 161953Z VRB05KT 10SM SCT015 BKN070 23/14 A3003 RMK AO2 SLP172 T02280144
 
KAWO - Arlington Muni, Washington, USA
Distance from station: NNW 31mi, 50km
Updated: Tue, 16-Jul-2019 12:56pm PDT
Mostly cloudy
Mostly cloudy
 Wind from NW
Wind: NW 8 mph , 13 km/h
Temperature: 73°F , 23°C
Dew Point: 57°F , 14°C
Humidity: 57%
Barometer: 30.01 inHg , 1016.3 hPa
Clouds: Mostly cloudy
Visibility: 10 miles , 16 km
Cloud details: Mostly cloudy 3400 ft
2019/07/16 19:56 KAWO 161956Z AUTO 31007KT 10SM BKN034 23/14 A3001 RMK AO2 SLP165 T02280144
KPWT - Bremerton Ntnl, Washington, USA
Distance from station: WSW 37mi, 60km
Updated: Tue, 16-Jul-2019 12:56pm PDT
Partly cloudy
Partly cloudy
 Wind from varies
Wind: varies 6 mph , 9 km/h
Temperature: 70°F , 21°C
Dew Point: 57°F , 14°C
Humidity: 64%
Barometer: 30.02 inHg , 1016.6 hPa
Clouds: Partly cloudy
Visibility: 10 miles , 16 km
Cloud details: Few Clouds 2700 ft
Partly cloudy 7500 ft
2019/07/16 19:56 KPWT 161956Z AUTO VRB05KT 10SM FEW027 SCT075 21/14 A3002 RMK AO2 SLP180 T02110144
 
KTIW - Tacoma, Washington, USA
Distance from station: SW 41mi, 66km
Updated: Tue, 16-Jul-2019 12:53pm PDT
Mostly cloudy
Mostly cloudy
 Wind from WSW
Wind: WSW 7 mph , 11 km/h
Temperature: 72°F , 22°C
Dew Point: 57°F , 14°C
Humidity: 61%
Barometer: 30.02 inHg , 1016.6 hPa
Clouds: Mostly cloudy
Visibility: 10 miles , 16 km
Cloud details: Partly cloudy 3200 ft
Mostly cloudy 7000 ft
2019/07/16 19:53 KTIW 161953Z 24006KT 10SM SCT032 BKN070 22/14 A3002 RMK AO2 SLP161 T02220144
KSMP - Stampede Pass, Washington, USA
Distance from station: SE 45mi, 72km
Updated: Tue, 16-Jul-2019 12:56pm PDT
Mostly cloudy
Mostly cloudy
 Wind from varies
Wind: varies 3 mph , 6 km/h
Temperature: 61°F , 16°C
Dew Point: 52°F , 11°C
Humidity: 72%
Barometer: 30.08 inHg , 1018.6 hPa
Clouds: Mostly cloudy
Visibility: 10 miles , 16 km
Cloud details: Few Clouds 2000 ft
Partly cloudy 2400 ft
Mostly cloudy 6000 ft
2019/07/16 19:56 KSMP 161956Z AUTO VRB03KT 10SM FEW020 SCT024 BKN060 16/11 A3008 RMK AO2 RAE03 SLP167 T01610106 PNO
 
KPLU - Puyallup/Thun, Washington, USA
Distance from station: SSW 45mi, 73km
Updated: Tue, 16-Jul-2019 1:15pm PDT
Overcast
Overcast
 Wind from calm
Wind: Calm
Temperature: 73°F , 23°C
Dew Point: 61°F , 16°C
Humidity: 65%
Barometer: 30.03 inHg , 1016.9 hPa
Clouds: Overcast
Visibility: 10 miles , 16 km
Cloud details: Mostly cloudy 7000 ft
Overcast 8000 ft
2019/07/16 20:15 KPLU 162015Z AUTO 00000KT 10SM BKN070 OVC080 23/16 A3003 RMK AO2
KTCM - Tacoma/Mc Chord, Washington, USA
Distance from station: SSW 47mi, 76km
Updated: Tue, 16-Jul-2019 12:58pm PDT
Overcast
Overcast
 Wind from W
Wind: W 5 mph , 7 km/h
Temperature: 73°F , 23°C
Dew Point: 63°F , 17°C
Humidity: 69%
Barometer: 30.02 inHg , 1016.6 hPa
Clouds: Overcast
Visibility: 10 miles , 16 km
Cloud details: Overcast 7500 ft
2019/07/16 19:58 KTCM 161958Z AUTO 27004KT 10SM OVC075 23/17 A3002 RMK AO2 SLP168 T02280172 $